createdAt,value
2018-02-14T00:01:59.533Z,0.60
2018-02-14T00:04:26.986Z,0.50
2018-02-14T00:06:54.453Z,0.60
2018-02-14T00:09:21.897Z,0.50
2018-02-14T00:11:49.341Z,0.60
2018-02-14T00:14:17.580Z,0.50
2018-02-14T00:16:45.036Z,0.50
2018-02-14T00:19:12.497Z,0.50
2018-02-14T00:21:39.957Z,0.50
2018-02-14T00:24:07.409Z,0.50
2018-02-14T00:26:34.886Z,0.50
2018-02-14T00:29:02.337Z,0.50
2018-02-14T00:31:29.799Z,0.40
2018-02-14T00:33:57.282Z,0.50
2018-02-14T00:36:24.725Z,0.50
2018-02-14T00:38:52.202Z,0.40
2018-02-14T00:41:19.651Z,0.50
2018-02-14T00:43:47.101Z,0.50
2018-02-14T00:46:14.573Z,0.40
2018-02-14T00:48:42.033Z,0.40
2018-02-14T00:51:09.486Z,0.40
2018-02-14T00:53:37.173Z,0.40
2018-02-14T00:56:04.635Z,0.30
2018-02-14T00:58:32.107Z,0.40
2018-02-14T01:00:59.577Z,0.30
2018-02-14T01:03:27.040Z,0.30
2018-02-14T01:05:54.504Z,0.30
2018-02-14T01:08:21.966Z,0.30
2018-02-14T01:10:49.436Z,0.20
2018-02-14T01:13:16.884Z,0.20
2018-02-14T01:15:44.347Z,0.20
2018-02-14T01:18:11.825Z,0.10
2018-02-14T01:20:44.261Z,0.10
2018-02-14T01:23:12.482Z,0.10
2018-02-14T01:25:39.956Z,0.10
2018-02-14T01:28:07.415Z,0.10
2018-02-14T01:30:34.865Z,0.10
2018-02-14T01:33:02.321Z,0.10
2018-02-14T01:35:29.786Z,0.10
2018-02-14T01:37:57.238Z,0.10
2018-02-14T01:40:24.715Z,0.00
2018-02-14T01:42:52.166Z,0.00
2018-02-14T01:45:19.619Z,0.00
2018-02-14T01:47:47.083Z,0.00
2018-02-14T01:50:14.520Z,0.00
2018-02-14T01:52:42.747Z,-0.10
2018-02-14T01:55:10.218Z,-0.10
2018-02-14T01:57:37.670Z,0.00
2018-02-14T02:00:05.131Z,0.00
2018-02-14T02:02:32.588Z,0.00
2018-02-14T02:05:00.055Z,-0.10
2018-02-14T02:07:27.517Z,0.00
2018-02-14T02:09:55.195Z,0.00
2018-02-14T02:12:22.652Z,0.00
2018-02-14T02:14:50.105Z,0.00
2018-02-14T02:17:17.581Z,-0.10
2018-02-14T02:19:45.802Z,-0.10
2018-02-14T02:22:14.028Z,-0.10
2018-02-14T02:24:41.475Z,-0.10
2018-02-14T02:27:08.926Z,-0.10
2018-02-14T02:29:36.394Z,-0.10
2018-02-14T02:32:03.863Z,-0.20
2018-02-14T02:34:31.322Z,-0.20
2018-02-14T02:36:58.766Z,-0.20
2018-02-14T02:39:38.847Z,-0.20
2018-02-14T02:42:06.312Z,-0.20
2018-02-14T02:44:33.748Z,-0.20
2018-02-14T02:47:01.220Z,-0.20
2018-02-14T02:49:28.684Z,-0.20
2018-02-14T02:51:56.136Z,-0.30
2018-02-14T02:54:24.470Z,-0.20
2018-02-14T02:56:51.934Z,-0.30
2018-02-14T02:59:19.396Z,-0.30
2018-02-14T03:01:46.844Z,-0.30
2018-02-14T03:04:14.309Z,-0.40
2018-02-14T03:06:42.562Z,-0.40
2018-02-14T03:09:10.033Z,-0.40
2018-02-14T03:11:37.514Z,-0.40
2018-02-14T03:14:04.971Z,-0.40
2018-02-14T03:16:32.455Z,-0.40
2018-02-14T03:18:59.948Z,-0.40
2018-02-14T03:21:27.402Z,-0.50
2018-02-14T03:23:54.864Z,-0.50
2018-02-14T03:26:22.373Z,-0.50
2018-02-14T03:28:49.830Z,-0.50
2018-02-14T03:31:17.288Z,-0.50
2018-02-14T03:33:44.739Z,-0.50
2018-02-14T03:36:12.263Z,-0.50
2018-02-14T03:38:39.721Z,-0.50
2018-02-14T03:41:07.162Z,-0.50
2018-02-14T03:43:34.629Z,-0.60
2018-02-14T03:46:02.110Z,-0.50
2018-02-14T03:48:29.579Z,-0.60
2018-02-14T03:50:57.030Z,-0.50
2018-02-14T03:53:24.483Z,-0.50
2018-02-14T03:55:51.942Z,-0.50
2018-02-14T03:58:19.423Z,-0.60
2018-02-14T04:00:47.626Z,-0.60
2018-02-14T04:03:15.083Z,-0.60
2018-02-14T04:05:42.543Z,-0.60
2018-02-14T04:08:10.027Z,-0.70
2018-02-14T04:10:38.275Z,-0.70
2018-02-14T04:13:05.731Z,-0.70
2018-02-14T04:15:33.219Z,-0.70
2018-02-14T04:18:00.650Z,-0.70
2018-02-14T04:20:28.099Z,-0.70
2018-02-14T04:22:55.557Z,-0.70
2018-02-14T04:25:23.013Z,-0.70
2018-02-14T04:27:50.506Z,-0.70
2018-02-14T04:30:20.903Z,-0.70
2018-02-14T04:32:48.374Z,-0.70
2018-02-14T04:35:15.830Z,-0.70
2018-02-14T04:37:43.326Z,-0.70
2018-02-14T04:40:10.779Z,-0.70
2018-02-14T04:42:38.229Z,-0.70
2018-02-14T04:45:05.667Z,-0.70
2018-02-14T04:47:33.126Z,-0.80
2018-02-14T04:50:01.354Z,-0.80
2018-02-14T04:52:28.845Z,-0.80
2018-02-14T04:54:56.271Z,-0.80
2018-02-14T04:57:23.777Z,-0.80
2018-02-14T04:59:51.248Z,-0.80
2018-02-14T05:02:19.472Z,-0.80
2018-02-14T05:04:46.941Z,-0.90
2018-02-14T05:07:14.415Z,-0.80
2018-02-14T05:09:42.639Z,-0.90
2018-02-14T05:12:10.867Z,-0.90
2018-02-14T05:14:38.318Z,-0.90
2018-02-14T05:17:05.757Z,-0.80
2018-02-14T05:19:33.254Z,-0.80
2018-02-14T05:22:00.710Z,-0.80
2018-02-14T05:24:28.162Z,-0.80
2018-02-14T05:26:55.619Z,-0.90
2018-02-14T05:29:23.099Z,-0.90
2018-02-14T05:31:50.558Z,-0.90
2018-02-14T05:34:18.020Z,-0.90
2018-02-14T05:36:45.478Z,-0.90
2018-02-14T05:39:12.933Z,-0.90
2018-02-14T05:41:40.406Z,-1.00
2018-02-14T05:44:07.868Z,-0.90
2018-02-14T05:46:35.351Z,-1.00
2018-02-14T05:49:02.796Z,-1.00
2018-02-14T05:51:30.251Z,-1.00
2018-02-14T05:53:57.727Z,-1.00
2018-02-14T05:56:25.189Z,-1.00
2018-02-14T05:58:52.655Z,-1.10
2018-02-14T06:01:20.132Z,-1.00
2018-02-14T06:03:47.752Z,-1.00
2018-02-14T06:06:15.230Z,-1.00
2018-02-14T06:08:43.455Z,-1.00
2018-02-14T06:11:10.923Z,-1.00
2018-02-14T06:16:18.756Z,-1.00
2018-02-14T06:18:46.598Z,-1.00
2018-02-14T06:21:14.033Z,-1.00
2018-02-14T06:23:41.486Z,-1.00
2018-02-14T06:26:08.930Z,-1.10
2018-02-14T06:28:37.172Z,-1.10
2018-02-14T06:31:04.615Z,-1.10
2018-02-14T06:33:32.083Z,-1.10
2018-02-14T06:35:59.537Z,-1.10
2018-02-14T06:38:27.023Z,-1.10
2018-02-14T06:40:54.457Z,-1.10
2018-02-14T06:43:21.907Z,-1.10
2018-02-14T06:45:49.371Z,-1.10
2018-02-14T06:48:16.827Z,-1.10
2018-02-14T06:50:44.326Z,-1.10
2018-02-14T06:53:11.779Z,-1.10
2018-02-14T06:55:39.243Z,-1.10
2018-02-14T06:58:06.724Z,-1.10
2018-02-14T07:00:34.159Z,-1.00
2018-02-14T07:03:01.606Z,-1.10
2018-02-14T07:05:29.118Z,-1.10
2018-02-14T07:07:56.583Z,-1.10
2018-02-14T07:13:04.715Z,-1.10
2018-02-14T07:15:32.151Z,-1.10
2018-02-14T07:17:59.596Z,-1.10
2018-02-14T07:20:27.056Z,-1.10
2018-02-14T07:22:54.510Z,-1.10
2018-02-14T07:25:21.988Z,-1.10
2018-02-14T07:27:49.447Z,-1.10
2018-02-14T07:30:16.910Z,-1.10
2018-02-14T07:32:44.359Z,-1.10
2018-02-14T07:35:11.821Z,-1.10
2018-02-14T07:37:39.253Z,-1.10
2018-02-14T07:40:07.494Z,-1.10
2018-02-14T07:42:34.937Z,-1.10
2018-02-14T07:45:02.391Z,-1.10
2018-02-14T07:47:29.860Z,-1.10
2018-02-14T07:49:57.360Z,-1.00
2018-02-14T07:52:24.754Z,-1.00
2018-02-14T07:54:52.981Z,-0.90
2018-02-14T07:57:20.427Z,-0.90
2018-02-14T07:59:47.882Z,-0.90
2018-02-14T08:02:15.338Z,-0.80
2018-02-14T08:04:42.780Z,-0.80
2018-02-14T08:07:11.008Z,-0.70
2018-02-14T08:09:38.462Z,-0.70
2018-02-14T08:12:05.920Z,-0.60
2018-02-14T08:14:33.382Z,-0.50
2018-02-14T08:17:00.845Z,-0.50
2018-02-14T08:19:28.302Z,-0.50
2018-02-14T08:21:55.749Z,-0.50
2018-02-14T08:24:23.209Z,-0.30
2018-02-14T08:26:50.675Z,-0.30
2018-02-14T08:29:18.134Z,-0.20
2018-02-14T08:31:46.472Z,-0.20
2018-02-14T08:34:13.925Z,-0.20
2018-02-14T08:36:41.389Z,-0.10
2018-02-14T08:39:09.622Z,0.00
2018-02-14T08:41:37.874Z,0.00
2018-02-14T08:44:05.335Z,0.00
2018-02-14T08:46:32.803Z,0.10
2018-02-14T08:49:00.233Z,0.20
2018-02-14T08:51:27.715Z,0.10
2018-02-14T08:53:55.182Z,0.20
2018-02-14T08:56:22.641Z,0.30
2018-02-14T08:58:50.097Z,0.40
2018-02-14T09:01:17.582Z,0.50
2018-02-14T09:03:45.023Z,0.60
2018-02-14T09:06:12.479Z,0.50
2018-02-14T09:08:39.952Z,0.60
2018-02-14T09:11:07.405Z,0.60
2018-02-14T09:16:02.602Z,0.80
2018-02-14T09:18:30.071Z,0.90
2018-02-14T09:20:57.527Z,0.90
2018-02-14T09:23:24.993Z,1.00
2018-02-14T09:25:52.453Z,1.10
2018-02-14T09:28:19.887Z,1.00
2018-02-14T09:30:48.105Z,1.20
2018-02-14T09:33:15.553Z,1.20
2018-02-14T09:35:43.008Z,1.40
2018-02-14T09:38:10.451Z,1.50
2018-02-14T09:40:38.664Z,1.60
2018-02-14T09:43:06.116Z,1.60
2018-02-14T09:45:33.571Z,1.60
2018-02-14T09:48:01.026Z,1.70
2018-02-14T09:50:29.242Z,1.80
2018-02-14T09:52:56.695Z,1.80
2018-02-14T09:55:24.137Z,2.00
2018-02-14T09:57:52.345Z,2.10
2018-02-14T10:00:19.810Z,2.10
2018-02-14T10:02:47.270Z,2.20
2018-02-14T10:05:14.730Z,2.40
2018-02-14T10:07:43.057Z,2.30
2018-02-14T10:10:10.518Z,2.60
2018-02-14T10:12:37.972Z,2.60
2018-02-14T10:15:05.414Z,2.70
2018-02-14T10:17:32.862Z,2.70
2018-02-14T10:20:00.936Z,2.80
2018-02-14T10:22:28.344Z,2.70
2018-02-14T10:24:55.798Z,2.90
2018-02-14T10:27:23.236Z,3.00
2018-02-14T10:29:50.682Z,3.00
2018-02-14T10:32:18.125Z,3.10
2018-02-14T10:34:46.347Z,3.20
2018-02-14T10:37:13.787Z,3.20
2018-02-14T10:39:41.216Z,3.40
2018-02-14T10:42:09.434Z,3.30
2018-02-14T10:44:36.870Z,3.30
2018-02-14T10:47:05.075Z,3.50
2018-02-14T10:49:32.555Z,3.50
2018-02-14T10:51:59.985Z,3.50
2018-02-14T10:54:27.430Z,3.60
2018-02-14T10:56:55.647Z,3.60
2018-02-14T10:59:23.104Z,3.60
2018-02-14T11:01:56.230Z,3.80
2018-02-14T11:04:23.690Z,3.90
2018-02-14T11:06:51.141Z,3.90
2018-02-14T11:09:18.697Z,3.70
2018-02-14T11:11:46.168Z,3.80
2018-02-14T11:14:13.610Z,3.80
2018-02-14T11:16:41.072Z,3.90
2018-02-14T11:19:08.544Z,3.90
2018-02-14T11:21:36.008Z,3.90
2018-02-14T11:24:03.487Z,4.00
2018-02-14T11:26:30.959Z,4.00
2018-02-14T11:41:19.307Z,4.10
2018-02-14T11:43:46.797Z,3.70
2018-02-14T11:46:14.236Z,3.60
2018-02-14T11:48:41.668Z,3.60
2018-02-14T11:51:09.106Z,3.70
2018-02-14T11:53:37.324Z,3.80
2018-02-14T11:56:04.780Z,3.80
2018-02-14T11:58:32.234Z,3.80
2018-02-14T12:00:59.694Z,3.90
2018-02-14T12:03:27.147Z,4.10
2018-02-14T12:05:54.604Z,4.40
2018-02-14T12:08:22.814Z,4.40
2018-02-14T12:10:50.281Z,4.40
2018-02-14T12:13:17.744Z,4.40
2018-02-14T12:15:45.198Z,4.40
2018-02-14T12:18:12.636Z,4.60
2018-02-14T12:20:40.853Z,4.50
2018-02-14T12:23:08.310Z,4.50
2018-02-14T12:25:35.768Z,4.40
2018-02-14T12:28:03.201Z,4.40
2018-02-14T12:30:31.465Z,4.30
2018-02-14T12:32:58.929Z,4.30
2018-02-14T12:35:26.384Z,4.20
2018-02-14T12:37:53.829Z,4.10
2018-02-14T12:40:21.347Z,4.10
2018-02-14T12:42:48.808Z,4.20
2018-02-14T12:45:16.309Z,4.10
2018-02-14T12:47:43.744Z,4.30
2018-02-14T12:50:11.200Z,4.40
2018-02-14T12:52:38.639Z,4.30
2018-02-14T12:55:06.854Z,4.40
2018-02-14T12:57:34.311Z,4.40
2018-02-14T13:00:01.775Z,4.40
2018-02-14T13:02:29.205Z,4.50
2018-02-14T13:04:57.434Z,4.50
2018-02-14T13:07:24.880Z,4.50
2018-02-14T13:09:52.313Z,4.60
2018-02-14T13:12:20.556Z,4.70
2018-02-14T13:14:48.006Z,4.70
2018-02-14T13:17:15.463Z,4.70
2018-02-14T13:19:42.932Z,4.70
2018-02-14T13:22:10.387Z,4.70
2018-02-14T13:24:37.845Z,4.80
2018-02-14T13:27:05.323Z,4.80
2018-02-14T13:29:32.880Z,4.70
2018-02-14T13:32:00.320Z,4.70
2018-02-14T13:34:27.794Z,4.80
2018-02-14T13:36:55.283Z,4.90
2018-02-14T13:39:22.723Z,4.80
2018-02-14T13:41:50.176Z,4.90
2018-02-14T13:44:17.636Z,4.90
2018-02-14T13:46:45.099Z,4.70
2018-02-14T13:49:12.566Z,4.70
2018-02-14T13:51:40.033Z,4.80
2018-02-14T13:54:07.491Z,4.80
2018-02-14T13:56:34.937Z,4.90
2018-02-14T13:59:02.412Z,5.00
2018-02-14T14:01:29.873Z,5.00
2018-02-14T14:03:57.339Z,4.80
2018-02-14T14:06:24.801Z,4.80
2018-02-14T14:08:52.294Z,5.00
2018-02-14T14:11:20.605Z,4.90
2018-02-14T14:13:48.010Z,4.90
2018-02-14T14:16:15.468Z,4.90
2018-02-14T14:18:42.930Z,4.80
2018-02-14T14:21:10.395Z,4.90
2018-02-14T14:23:37.832Z,4.90
2018-02-14T14:26:06.037Z,4.90
2018-02-14T14:28:33.507Z,4.90
2018-02-14T14:31:00.992Z,4.80
2018-02-14T14:33:28.553Z,4.80
2018-02-14T14:35:56.123Z,4.70
2018-02-14T14:38:24.377Z,4.70
2018-02-14T14:40:51.835Z,4.70
2018-02-14T14:43:19.316Z,4.80
2018-02-14T14:45:46.740Z,4.70
2018-02-14T14:48:14.961Z,4.80
2018-02-14T14:50:43.200Z,4.80
2018-02-14T14:53:11.417Z,4.80
2018-02-14T14:55:38.854Z,4.80
2018-02-14T14:58:06.318Z,4.90
2018-02-14T15:00:33.765Z,4.90
2018-02-14T15:03:01.983Z,4.80
2018-02-14T15:05:29.460Z,4.70
2018-02-14T15:07:56.892Z,4.80
2018-02-14T15:10:24.357Z,4.70
2018-02-14T15:12:51.810Z,4.60
2018-02-14T15:15:19.256Z,4.60
2018-02-14T15:17:47.584Z,4.60
2018-02-14T15:20:15.048Z,4.60
2018-02-14T15:22:42.548Z,4.50
2018-02-14T15:25:10.053Z,4.60
2018-02-14T15:27:37.496Z,4.60
2018-02-14T15:30:05.712Z,4.60
2018-02-14T15:32:33.161Z,4.60
2018-02-14T15:35:00.620Z,4.60
2018-02-14T15:37:28.086Z,4.60
2018-02-14T15:39:55.546Z,4.50
2018-02-14T15:42:22.993Z,4.50
2018-02-14T15:44:51.190Z,4.40
2018-02-14T15:47:18.742Z,4.40
2018-02-14T15:49:46.961Z,4.40
2018-02-14T15:52:14.424Z,4.40
2018-02-14T15:54:42.269Z,4.40
2018-02-14T15:57:09.697Z,4.40
2018-02-14T15:59:37.912Z,4.40
2018-02-14T16:02:05.408Z,4.30
2018-02-14T16:04:32.863Z,4.40
2018-02-14T16:07:00.336Z,4.30
2018-02-14T16:09:27.770Z,4.30
2018-02-14T16:11:55.225Z,4.30
2018-02-14T16:14:22.682Z,4.20
2018-02-14T16:16:51.286Z,4.30
2018-02-14T16:19:18.784Z,4.30
2018-02-14T16:21:46.181Z,4.30
2018-02-14T16:24:14.404Z,4.10
2018-02-14T16:26:41.860Z,4.00
2018-02-14T16:29:09.440Z,4.00
2018-02-14T16:31:36.890Z,4.00
2018-02-14T16:34:05.058Z,3.90
2018-02-14T16:36:32.495Z,3.90
2018-02-14T16:38:59.962Z,3.90
2018-02-14T16:41:27.523Z,4.00
2018-02-14T16:43:56.453Z,4.00
2018-02-14T16:46:23.907Z,4.00
2018-02-14T16:48:51.371Z,4.00
2018-02-14T16:51:18.824Z,4.00
2018-02-14T16:53:46.285Z,4.00
2018-02-14T16:56:14.058Z,4.00
2018-02-14T16:58:41.513Z,3.90
2018-02-14T17:01:08.943Z,4.00
2018-02-14T17:03:36.402Z,4.00
2018-02-14T17:06:03.941Z,3.90
2018-02-14T17:08:31.407Z,3.90
2018-02-14T17:10:58.909Z,3.90
2018-02-14T17:13:26.337Z,3.90
2018-02-14T17:15:54.564Z,3.90
2018-02-14T17:18:22.006Z,3.90
2018-02-14T17:20:50.224Z,3.80
2018-02-14T17:23:17.682Z,3.80
2018-02-14T17:25:45.117Z,3.80
2018-02-14T17:28:13.349Z,3.80
2018-02-14T17:30:40.789Z,3.80
2018-02-14T17:33:08.247Z,3.80
2018-02-14T17:35:35.721Z,3.80
2018-02-14T17:38:03.205Z,3.80
2018-02-14T17:40:30.691Z,3.80
2018-02-14T17:42:58.184Z,3.80
2018-02-14T17:45:26.400Z,3.80
2018-02-14T17:47:53.966Z,3.80
2018-02-14T17:50:22.177Z,3.80
2018-02-14T17:52:49.622Z,3.80
2018-02-14T17:55:17.071Z,3.80
2018-02-14T17:57:44.541Z,3.80
2018-02-14T18:00:11.995Z,3.80
2018-02-14T18:02:39.452Z,3.90
2018-02-14T18:05:06.962Z,3.80
2018-02-14T18:07:34.394Z,3.80
2018-02-14T18:10:01.875Z,3.80
2018-02-14T18:12:29.322Z,3.80
2018-02-14T18:14:56.762Z,3.90
2018-02-14T18:17:24.221Z,3.90
2018-02-14T18:19:51.678Z,3.90
2018-02-14T18:22:19.140Z,3.90
2018-02-14T18:24:47.793Z,3.90
2018-02-14T18:27:15.233Z,3.90
2018-02-14T18:29:43.485Z,3.90
2018-02-14T18:32:10.941Z,3.80
2018-02-14T18:42:49.467Z,3.80
2018-02-14T18:45:18.269Z,3.80
2018-02-14T18:47:47.440Z,3.80
2018-02-14T18:50:14.900Z,3.80
2018-02-14T18:55:16.949Z,3.80
2018-02-14T18:57:44.395Z,3.80
2018-02-14T19:00:11.874Z,3.80
2018-02-14T19:07:47.230Z,3.80
2018-02-14T19:10:15.455Z,3.80
2018-02-14T19:12:42.916Z,3.80
2018-02-14T19:15:11.563Z,3.80
2018-02-14T19:17:39.780Z,3.80
2018-02-14T19:20:07.225Z,3.80
2018-02-14T19:22:34.675Z,3.80
2018-02-14T19:25:02.153Z,3.80
2018-02-14T19:27:29.597Z,3.80
2018-02-14T19:29:57.826Z,3.80
2018-02-14T19:32:25.270Z,3.80
2018-02-14T19:34:52.958Z,3.80
2018-02-14T19:37:20.411Z,3.80
2018-02-14T19:39:47.863Z,3.80
2018-02-14T19:42:15.341Z,3.80
2018-02-14T19:44:42.751Z,3.80
2018-02-14T19:47:10.981Z,3.80
2018-02-14T19:49:38.457Z,3.80
2018-02-14T19:52:05.891Z,3.80
2018-02-14T19:54:33.392Z,3.80
2018-02-14T19:57:00.841Z,3.80
2018-02-14T19:59:29.395Z,3.80
2018-02-14T20:01:56.853Z,3.80
2018-02-14T20:04:24.348Z,3.70
2018-02-14T20:06:51.807Z,3.70
2018-02-14T20:09:19.281Z,3.80
2018-02-14T20:11:48.145Z,3.70
2018-02-14T20:14:15.622Z,3.70
2018-02-14T20:16:43.067Z,3.70
2018-02-14T20:19:10.572Z,3.70
2018-02-14T20:21:38.036Z,3.70
2018-02-14T20:24:05.489Z,3.70
2018-02-14T20:26:33.826Z,3.70
2018-02-14T20:29:02.048Z,3.70
2018-02-14T20:31:29.528Z,3.60
2018-02-14T20:33:56.959Z,3.70
2018-02-14T20:36:24.396Z,3.60
2018-02-14T20:38:51.850Z,3.60
2018-02-14T20:41:20.075Z,3.60
2018-02-14T20:43:47.546Z,3.60
2018-02-14T20:46:14.989Z,3.60
2018-02-14T20:48:42.937Z,3.60
2018-02-14T20:51:10.501Z,3.60
2018-02-14T20:53:38.730Z,3.60
2018-02-14T20:56:06.194Z,3.60
2018-02-14T20:58:33.644Z,3.60
2018-02-14T21:01:01.100Z,3.60
2018-02-14T21:03:28.588Z,3.60
2018-02-14T21:05:56.047Z,3.60
2018-02-14T21:08:23.510Z,3.60
2018-02-14T21:10:50.980Z,3.60
2018-02-14T21:13:18.945Z,3.60
2018-02-14T21:15:46.397Z,3.60
2018-02-14T21:18:14.619Z,3.60
2018-02-14T21:20:42.851Z,3.60
2018-02-14T21:23:10.339Z,3.60
2018-02-14T21:25:37.816Z,3.60
2018-02-14T21:28:05.257Z,3.60
2018-02-14T21:30:32.719Z,3.60
2018-02-14T21:33:00.913Z,3.60
2018-02-14T21:35:28.580Z,3.60
2018-02-14T21:37:56.807Z,3.60
2018-02-14T21:40:24.282Z,3.60
2018-02-14T21:42:51.734Z,3.60
2018-02-14T21:45:19.198Z,3.60
2018-02-14T21:47:46.657Z,3.60
2018-02-14T21:50:14.120Z,3.60
2018-02-14T21:52:41.566Z,3.60
2018-02-14T21:55:10.588Z,3.60
2018-02-14T21:57:38.070Z,3.60
2018-02-14T22:00:05.508Z,3.60
2018-02-14T22:02:32.982Z,3.60
2018-02-14T22:05:00.469Z,3.60
2018-02-14T22:07:27.946Z,3.60
2018-02-14T22:09:55.396Z,3.60
2018-02-14T22:12:23.610Z,3.60
2018-02-14T22:14:51.850Z,3.60
2018-02-14T22:17:19.303Z,3.60
2018-02-14T22:19:46.764Z,3.60
2018-02-14T22:22:14.210Z,3.60
2018-02-14T22:24:41.671Z,3.60
2018-02-14T22:27:09.336Z,3.60
2018-02-14T22:29:37.615Z,3.50
2018-02-14T22:32:05.072Z,3.50
2018-02-14T22:34:32.532Z,3.60
2018-02-14T22:37:00.016Z,3.50
2018-02-14T22:39:27.447Z,3.60
2018-02-14T22:41:55.687Z,3.50
2018-02-14T22:44:23.172Z,3.50
2018-02-14T22:46:50.622Z,3.60
2018-02-14T22:49:18.083Z,3.60
2018-02-14T22:51:45.541Z,3.60
2018-02-14T22:54:13.015Z,3.60
2018-02-14T22:56:40.467Z,3.60
2018-02-14T22:59:07.932Z,3.60
2018-02-14T23:01:35.443Z,3.50
2018-02-14T23:04:02.924Z,3.50
2018-02-14T23:06:30.381Z,3.50
2018-02-14T23:08:57.956Z,3.50
2018-02-14T23:11:25.446Z,3.50
2018-02-14T23:13:52.911Z,3.60
2018-02-14T23:16:20.369Z,3.60
2018-02-14T23:18:47.846Z,3.60
2018-02-14T23:21:15.303Z,3.50
2018-02-14T23:23:42.756Z,3.50
2018-02-14T23:26:10.201Z,3.40
2018-02-14T23:28:37.639Z,3.40
2018-02-14T23:31:05.080Z,3.30
2018-02-14T23:33:33.299Z,3.20
2018-02-14T23:36:00.773Z,3.20
2018-02-14T23:38:28.230Z,3.20
2018-02-14T23:40:55.688Z,3.10
2018-02-14T23:43:23.121Z,3.00
2018-02-14T23:45:51.470Z,2.90
2018-02-14T23:48:18.932Z,2.80
2018-02-14T23:50:46.366Z,2.80
2018-02-14T23:53:13.833Z,2.80
2018-02-14T23:55:41.282Z,2.70
2018-02-14T23:58:08.742Z,2.70
